Time;durP1;ratioP1;P1;durP2;ratioP2;P2;SDS_P1;SDS_P2;PMS_P1;PMS_P2;Temp;Humidity;BMP_temperature;BMP_pressure;BME280_temperature;BME280_humidity;BME280_pressure;Samples;Min_cycle;Max_cycle;Signal;HPM_P1;HPM_P2
2021/12/13 00:00:33;;;;;;;;;;;;;;;1.93;61.83;101850.86;474414;111;922801;-70
2021/12/13 00:01:46;;;;;;;8.04;5.09;;;;;;;1.91;61.88;101851.98;467524;111;922362;-71
2021/12/13 00:03:02;;;;;;;7.25;4.82;;;;;;;1.87;61.91;101851.40;469374;111;922547;-70
2021/12/13 00:04:21;;;;;;;6.34;4.15;;;;;;;1.82;61.99;101842.83;470652;111;923018;-70
2021/12/13 00:05:34;;;;;;;8.19;4.27;;;;;;;1.80;62.08;101846.65;470384;111;922498;-70
2021/12/13 00:06:41;;;;;;;5.54;4.58;;;;;;;1.76;62.14;101843.37;463296;112;922812;-70
2021/12/13 00:07:55;;;;;;;5.90;4.84;;;;;;;1.85;62.21;101831.84;469866;110;946952;-70
2021/12/13 00:09:02;;;;;;;5.54;4.86;;;;;;;1.73;62.23;101827.47;462267;113;922482;-70
2021/12/13 00:10:12;;;;;;;7.92;4.62;;;;;;;1.71;62.20;101824.05;459094;113;922683;-70
2021/12/13 00:11:22;;;;;;;6.59;4.24;;;;;;;1.70;62.12;101825.05;456236;114;922671;-69
2021/12/13 00:12:29;;;;;;;7.03;4.66;;;;;;;1.68;62.17;101824.31;456287;115;922593;-70
2021/12/13 00:13:39;;;;;;;5.91;4.35;;;;;;;1.65;62.25;101813.83;456206;114;922662;-71
2021/12/13 00:14:49;;;;;;;6.26;5.47;;;;;;;1.63;62.34;101813.95;456148;115;922538;-70
2021/12/13 00:15:59;;;;;;;7.19;4.93;;;;;;;1.64;62.39;101822.87;456946;115;922703;-70
2021/12/13 00:17:09;;;;;;;6.74;4.27;;;;;;;1.63;62.34;101821.16;456925;114;922889;-71
2021/12/13 00:18:16;;;;;;;7.46;4.98;;;;;;;1.63;62.41;101813.09;457242;113;922498;-72
2021/12/13 00:19:26;;;;;;;6.57;4.88;;;;;;;1.62;62.48;101808.69;457163;115;922547;-71
2021/12/13 00:20:37;;;;;;;4.61;4.19;;;;;;;1.63;62.50;101823.84;456451;114;922590;-70
2021/12/13 00:21:41;;;;;;;5.13;4.49;;;;;;;1.63;62.52;101824.70;456609;115;922392;-70
2021/12/13 00:22:48;;;;;;;9.36;4.57;;;;;;;1.65;62.50;101830.78;457055;115;923265;-70
2021/12/13 00:23:58;;;;;;;7.21;4.26;;;;;;;1.66;62.46;101824.44;457388;116;922683;-70
2021/12/13 00:25:12;;;;;;;7.15;3.94;;;;;;;1.79;62.45;101823.42;470547;110;946787;-72
2021/12/13 00:26:31;;;;;;;4.84;4.37;;;;;;;1.70;62.45;101826.88;464002;114;923013;-70
2021/12/13 00:27:46;;;;;;;8.39;4.81;;;;;;;1.81;62.42;101822.33;471687;110;946697;-69
2021/12/13 00:28:49;;;;;;;6.88;4.31;;;;;;;1.71;62.37;101832.11;462426;112;922526;-69
2021/12/13 00:30:35;;;;;;;9.25;4.44;;;;;;;1.71;62.31;101831.28;463938;111;922548;-71
2021/12/13 00:31:52;;;;;;;5.13;4.48;;;;;;;1.80;62.26;101834.05;471898;110;946615;-71
2021/12/13 00:33:25;;;;;;;5.61;4.73;;;;;;;1.69;62.27;101839.47;462747;113;922602;-71
2021/12/13 00:34:35;;;;;;;6.30;4.67;;;;;;;1.68;62.27;101833.23;463983;111;922504;-70
2021/12/13 00:35:48;;;;;;;11.43;5.27;;;;;;;1.67;62.30;101827.98;456754;114;922617;-71
2021/12/13 00:36:55;;;;;;;5.66;3.94;;;;;;;1.65;62.40;101820.03;456863;114;922659;-70
2021/12/13 00:38:02;;;;;;;5.29;4.61;;;;;;;1.65;62.42;101832.65;456701;116;922866;-70
2021/12/13 00:39:29;;;;;;;8.03;4.23;;;;;;;1.65;62.26;101838.03;456463;114;923354;-71
2021/12/13 00:40:36;;;;;;;7.10;4.61;;;;;;;1.64;62.34;101837.17;456420;114;922753;-71
2021/12/13 00:41:43;;;;;;;8.83;4.28;;;;;;;1.64;62.33;101834.48;456863;113;922514;-70
2021/12/13 00:42:50;;;;;;;7.78;4.06;;;;;;;1.65;62.33;101838.03;457752;116;922589;-70
2021/12/13 00:43:57;;;;;;;7.01;4.17;;;;;;;1.66;62.29;101843.25;457185;114;922545;-71
2021/12/13 00:45:05;;;;;;;6.47;4.29;;;;;;;1.68;62.35;101840.45;456899;114;922997;-70
2021/12/13 00:46:11;;;;;;;7.11;4.62;;;;;;;1.69;62.24;101842.16;456799;114;922552;-72
2021/12/13 00:47:18;;;;;;;5.66;4.43;;;;;;;1.70;62.12;101841.19;456129;114;923023;-70
2021/12/13 00:48:32;;;;;;;5.26;4.66;;;;;;;1.81;62.09;101843.84;470804;110;947142;-71
2021/12/13 00:49:39;;;;;;;4.71;3.89;;;;;;;1.70;62.03;101845.70;464031;113;922829;-70
2021/12/13 00:50:46;;;;;;;5.56;4.71;;;;;;;1.70;61.98;101851.08;464411;112;922660;-70
2021/12/13 00:51:52;;;;;;;7.23;4.68;;;;;;;1.70;62.01;101851.08;464412;112;922601;-71
2021/12/13 00:52:56;;;;;;;6.58;4.86;;;;;;;1.70;61.94;101843.87;464657;113;922622;-70
2021/12/13 00:54:03;;;;;;;7.41;4.26;;;;;;;1.71;61.92;101845.55;465030;112;922523;-70
2021/12/13 00:55:15;;;;;;;6.13;4.83;;;;;;;1.72;61.95;101839.20;464058;113;930649;-70
2021/12/13 00:56:56;;;;;;;7.32;4.50;;;;;;;1.74;62.00;101837.25;464117;112;922837;-70
2021/12/13 00:58:12;;;;;;;5.45;4.19;;;;;;;1.76;61.97;101837.99;464155;112;922558;-70
2021/12/13 00:59:37;;;;;;;7.53;4.74;;;;;;;1.79;61.91;101837.72;464936;112;930555;-70
2021/12/13 01:00:50;;;;;;;5.03;3.97;;;;;;;1.79;61.81;101832.34;464303;112;923156;-70
2021/12/13 01:02:06;;;;;;;11.74;4.34;;;;;;;1.78;61.72;101827.94;464468;112;922955;-70
2021/12/13 01:03:13;;;;;;;6.86;4.20;;;;;;;1.78;61.72;101827.94;464234;112;922544;-72
2021/12/13 01:04:16;;;;;;;7.36;4.43;;;;;;;1.77;61.65;101811.92;462699;112;922661;-71
2021/12/13 01:05:58;;;;;;;7.04;5.21;;;;;;;1.76;61.61;101821.00;465001;113;922416;-71
2021/12/13 01:07:38;;;;;;;5.13;4.34;;;;;;;1.74;61.61;101815.75;464503;114;922574;-71
2021/12/13 01:09:00;;;;;;;6.85;4.21;;;;;;;1.74;61.62;101815.75;464247;112;923112;-71
2021/12/13 01:10:41;;;;;;;5.77;4.03;;;;;;;1.71;61.57;101820.53;462811;113;922550;-71
2021/12/13 01:11:56;;;;;;;4.63;4.19;;;;;;;1.68;61.57;101824.31;464210;112;922976;-71
2021/12/13 01:13:00;;;;;;;9.08;4.87;;;;;;;1.65;61.64;101827.27;464401;112;922627;-70
2021/12/13 01:14:12;;;;;;;6.79;4.57;;;;;;;1.62;61.75;101822.98;464768;113;922609;-71
2021/12/13 01:15:33;;;;;;;4.83;4.26;;;;;;;1.72;61.74;101812.31;471108;110;946893;-71
2021/12/13 01:16:55;;;;;;;5.73;4.23;;;;;;;1.60;61.74;101810.64;456744;114;922542;-71
2021/12/13 01:18:16;;;;;;;5.26;4.28;;;;;;;1.59;61.75;101807.13;461736;113;922618;-71
2021/12/13 01:20:34;;;;;;;5.27;4.42;;;;;;;1.57;61.70;101805.53;463402;114;930605;-71
2021/12/13 01:21:41;;;;;;;4.85;4.09;;;;;;;1.56;61.68;101814.57;461895;114;923110;-69
2021/12/13 01:22:54;;;;;;;8.14;4.38;;;;;;;1.54;61.74;101812.03;462606;114;922491;-70
2021/12/13 01:24:04;;;;;;;5.70;4.63;;;;;;;1.53;61.80;101814.84;462120;114;922619;-70
2021/12/13 01:25:18;;;;;;;4.89;4.03;;;;;;;1.53;61.79;101812.15;462952;114;923036;-71
2021/12/13 01:27:35;;;;;;;7.18;4.34;;;;;;;1.51;61.71;101817.64;462317;114;922557;-70
2021/12/13 01:28:42;;;;;;;8.29;4.18;;;;;;;1.51;61.76;101814.10;462068;114;922716;-70
2021/12/13 01:29:50;;;;;;;5.39;4.44;;;;;;;1.50;61.82;101809.70;444214;118;923028;-71
2021/12/13 01:31:09;;;;;;;6.47;4.31;;;;;;;1.50;61.85;101809.70;461790;114;922589;-71
2021/12/13 01:32:14;;;;;;;7.48;4.54;;;;;;;1.49;61.79;101808.84;462794;114;922620;-71
2021/12/13 01:33:21;;;;;;;6.84;5.11;;;;;;;1.48;61.75;101808.99;461421;113;922498;-70
2021/12/13 01:34:26;;;;;;;5.44;4.07;;;;;;;1.46;61.75;101803.73;461709;113;922933;-71
2021/12/13 01:35:33;;;;;;;6.59;4.13;;;;;;;1.44;61.74;101804.83;462248;113;922805;-70
2021/12/13 01:36:45;;;;;;;7.80;4.71;;;;;;;1.42;61.76;101799.59;461696;114;922927;-71
2021/12/13 01:37:51;;;;;;;5.02;4.11;;;;;;;1.40;61.76;101803.37;461357;114;922566;-71
2021/12/13 01:38:54;;;;;;;6.33;4.11;;;;;;;1.37;61.82;101804.50;462527;114;923347;-70
2021/12/13 01:40:01;;;;;;;6.55;4.46;;;;;;;1.36;61.78;101816.22;462030;114;923206;-71
2021/12/13 01:41:08;;;;;;;6.05;4.58;;;;;;;1.33;61.81;101810.22;462081;114;922662;-71
2021/12/13 01:42:18;;;;;;;4.33;3.84;;;;;;;1.31;61.84;101801.45;453618;114;922765;-71
2021/12/13 01:43:25;;;;;;;6.88;4.34;;;;;;;1.29;61.94;101800.72;455894;113;922733;-71
2021/12/13 01:44:32;;;;;;;5.77;4.14;;;;;;;1.28;62.05;101794.48;462290;113;922675;-71
2021/12/13 01:45:37;;;;;;;8.61;4.24;;;;;;;1.28;62.05;101796.31;461834;114;922869;-71
2021/12/13 01:46:44;;;;;;;4.93;4.31;;;;;;;1.28;62.08;101804.38;461426;114;922669;-71
2021/12/13 01:47:48;;;;;;;6.53;4.47;;;;;;;1.27;62.10;101810.75;462090;114;922540;-70
2021/12/13 01:48:53;;;;;;;8.34;4.58;;;;;;;1.25;62.19;101811.73;461263;114;922694;-71
2021/12/13 01:50:06;;;;;;;7.10;3.96;;;;;;;1.29;62.21;101814.15;462099;114;931145;-70
2021/12/13 01:51:13;;;;;;;4.53;3.85;;;;;;;1.28;62.18;101810.61;461248;114;923013;-71
2021/12/13 01:52:26;;;;;;;6.77;4.34;;;;;;;1.29;62.14;101806.09;461599;114;922542;-72
2021/12/13 01:53:33;;;;;;;5.13;4.18;;;;;;;1.28;62.10;101805.23;460410;113;922646;-71
2021/12/13 01:54:39;;;;;;;5.37;4.81;;;;;;;1.28;62.10;101802.55;457680;113;922652;-71
2021/12/13 01:55:47;;;;;;;4.44;3.90;;;;;;;1.29;62.12;101812.31;462574;114;922511;-72
2021/12/13 01:57:22;;;;;;;7.79;3.98;;;;;;;1.31;62.18;101813.06;462925;114;923530;-71
2021/12/13 02:01:09;;;;;;;5.88;4.14;;;;;;;1.35;62.12;101805.59;461656;114;923314;-69
2021/12/13 02:01:50;;;;;;;5.58;3.92;;;;;;;1.36;62.11;101808.16;460511;114;922556;-70
2021/12/13 02:02:54;;;;;;;5.95;4.24;;;;;;;1.38;62.06;101802.67;462138;114;922698;-70
2021/12/13 02:04:07;;;;;;;5.84;4.42;;;;;;;1.39;62.06;101791.77;463374;114;922675;-70
2021/12/13 02:05:17;;;;;;;6.27;4.30;;;;;;;1.42;62.14;101790.68;462087;113;923089;-70
2021/12/13 02:06:36;;;;;;;5.43;4.21;;;;;;;1.43;62.04;101793.25;461009;114;922885;-71
2021/12/13 02:07:53;;;;;;;9.39;4.59;;;;;;;1.45;61.95;101791.27;462137;114;922761;-70
2021/12/13 02:08:59;;;;;;;5.36;4.02;;;;;;;1.47;61.87;101801.91;462449;113;923239;-69
2021/12/13 02:10:07;;;;;;;5.53;4.58;;;;;;;1.47;61.82;101792.01;461012;114;922640;-70
2021/12/13 02:11:10;;;;;;;6.41;4.40;;;;;;;1.49;61.78;101798.09;461937;114;922646;-71
2021/12/13 02:12:17;;;;;;;8.10;4.93;;;;;;;1.49;61.76;101795.41;462095;113;922700;-70
2021/12/13 02:13:26;;;;;;;6.77;4.54;;;;;;;1.50;61.68;101796.27;462182;114;930606;-70
2021/12/13 02:14:33;;;;;;;6.96;4.17;;;;;;;1.50;61.69;101797.12;462300;114;922590;-71
2021/12/13 02:18:16;;;;;;;6.07;4.53;;;;;;;1.52;61.50;101781.73;461890;114;922545;-70
2021/12/13 02:19:25;;;;;;;7.31;4.82;;;;;;;1.51;61.40;101787.22;462440;113;922575;-70
2021/12/13 02:20:32;;;;;;;7.17;4.84;;;;;;;1.51;61.40;101789.91;461776;114;922964;-72
2021/12/13 02:21:36;;;;;;;10.10;4.42;;;;;;;1.51;61.39;101784.53;462211;114;922601;-70
2021/12/13 02:22:43;;;;;;;6.58;4.62;;;;;;;1.51;61.38;101781.84;461968;114;922514;-69
2021/12/13 02:23:49;;;;;;;7.69;4.71;;;;;;;1.52;61.38;101778.19;462602;113;922514;-71
2021/12/13 02:24:55;;;;;;;6.67;4.86;;;;;;;1.52;61.38;101778.19;462144;114;922886;-70
2021/12/13 02:25:58;;;;;;;5.42;4.40;;;;;;;1.53;61.35;101779.90;462311;114;922566;-69
2021/12/13 02:27:04;;;;;;;7.24;4.19;;;;;;;1.53;61.28;101778.06;462023;114;922604;-71
2021/12/13 02:28:14;;;;;;;6.63;4.71;;;;;;;1.54;61.18;101778.92;462707;114;922607;-71
2021/12/13 02:29:30;;;;;;;5.64;4.47;;;;;;;1.54;61.15;101776.23;462489;114;922945;-70
2021/12/13 02:30:39;;;;;;;4.81;3.63;;;;;;;1.53;61.08;101771.84;461216;113;922755;-70
2021/12/13 02:31:43;;;;;;;4.97;4.12;;;;;;;1.52;61.05;101770.98;461437;114;922934;-70
2021/12/13 02:32:48;;;;;;;9.66;4.08;;;;;;;1.51;61.02;101768.41;460468;114;922552;-71
2021/12/13 02:33:58;;;;;;;5.82;4.29;;;;;;;1.51;60.99;101777.33;460082;114;923328;-69
2021/12/13 02:35:05;;;;;;;6.72;4.48;;;;;;;1.51;60.98;101774.64;460028;114;922603;-70
2021/12/13 02:36:13;;;;;;;9.84;4.31;;;;;;;1.51;60.84;101766.58;461661;114;922700;-69
2021/12/13 02:37:18;;;;;;;5.77;4.09;;;;;;;1.50;60.85;101762.18;462640;114;922630;-69
2021/12/13 02:38:23;;;;;;;4.62;3.75;;;;;;;1.50;60.77;101767.55;462012;114;922650;-70
2021/12/13 02:39:30;;;;;;;5.75;4.41;;;;;;;1.50;60.80;101772.92;461758;113;922876;-70
2021/12/13 02:40:35;;;;;;;6.20;4.03;;;;;;;1.50;60.81;101762.18;462672;114;922581;-69
2021/12/13 02:41:39;;;;;;;6.66;4.81;;;;;;;1.49;60.76;101765.02;462655;114;922701;-71
2021/12/13 02:42:44;;;;;;;6.63;4.12;;;;;;;1.49;60.75;101765.02;462001;114;930589;-70
2021/12/13 02:43:50;;;;;;;6.74;4.15;;;;;;;1.47;60.77;101765.13;461865;113;922984;-70
2021/12/13 02:44:57;;;;;;;5.62;5.08;;;;;;;1.47;60.71;101758.91;461228;114;930773;-70
2021/12/13 02:46:01;;;;;;;7.21;4.35;;;;;;;1.48;60.55;101763.30;460498;113;922721;-69
2021/12/13 02:47:08;;;;;;;7.31;4.42;;;;;;;1.46;60.52;101754.50;461877;114;922740;-71
2021/12/13 02:48:31;;;;;;;5.47;4.43;;;;;;;1.45;60.43;101753.65;461090;113;930634;-70
2021/12/13 02:49:38;;;;;;;5.52;4.16;;;;;;;1.44;60.43;101753.77;461104;113;922576;-70
2021/12/13 02:50:45;;;;;;;6.96;4.27;;;;;;;1.41;60.35;101744.14;461675;114;922540;-70
2021/12/13 02:51:52;;;;;;;6.63;4.44;;;;;;;1.38;60.35;101752.44;461729;114;922737;-71
2021/12/13 02:52:58;;;;;;;7.46;3.89;;;;;;;1.36;60.37;101743.67;461620;114;922546;-69
2021/12/13 02:54:18;;;;;;;6.04;4.47;;;;;;;1.35;60.31;101741.96;461973;114;922546;-69
2021/12/13 02:55:25;;;;;;;6.04;4.34;;;;;;;1.34;60.29;101748.30;456446;114;922835;-69
2021/12/13 02:56:32;;;;;;;6.59;4.36;;;;;;;1.33;60.33;101749.28;462966;114;922978;-70
2021/12/13 02:57:39;;;;;;;5.18;4.72;;;;;;;1.30;60.37;101744.18;462215;114;922631;-70
2021/12/13 02:58:43;;;;;;;5.52;4.89;;;;;;;1.31;60.39;101753.09;462465;114;922458;-70
2021/12/13 02:59:50;;;;;;;6.31;4.21;;;;;;;1.30;60.34;101754.06;462440;114;922961;-71
2021/12/13 03:01:15;;;;;;;5.58;4.10;;;;;;;1.30;60.38;101749.55;460494;113;922584;-71
2021/12/13 03:02:22;;;;;;;7.42;4.06;;;;;;;1.29;60.35;101755.04;461870;114;922811;-70
2021/12/13 03:03:31;;;;;;;9.89;4.57;;;;;;;1.28;60.44;101750.64;462621;114;922688;-71
2021/12/13 03:04:34;;;;;;;6.43;3.84;;;;;;;1.28;60.47;101753.33;462018;114;922924;-70
2021/12/13 03:05:41;;;;;;;6.54;4.63;;;;;;;1.27;60.49;101741.72;462122;114;923427;-69
2021/12/13 03:07:00;;;;;;;5.67;4.54;;;;;;;1.28;60.48;101742.58;462204;113;931065;-71
2021/12/13 03:08:08;;;;;;;7.07;4.27;;;;;;;1.29;60.41;101741.61;461378;114;923219;-70
2021/12/13 03:09:18;;;;;;;9.39;4.72;;;;;;;1.28;60.30;101734.52;462288;114;922720;-70
2021/12/13 03:10:25;;;;;;;8.87;4.02;;;;;;;1.27;60.21;101735.53;462384;114;923238;-71
2021/12/13 03:11:33;;;;;;;6.48;4.12;;;;;;;1.26;60.24;101734.67;461669;114;922672;-69
2021/12/13 03:12:37;;;;;;;6.81;4.87;;;;;;;1.25;60.23;101727.59;460732;114;922912;-71
2021/12/13 03:13:41;;;;;;;6.61;4.62;;;;;;;1.25;60.17;101735.65;461920;113;922592;-71
2021/12/13 03:14:50;;;;;;;10.09;5.09;;;;;;;1.23;60.17;101727.70;463063;114;930585;-69
2021/12/13 03:16:07;;;;;;;4.63;4.16;;;;;;;1.34;60.23;101734.02;472026;110;946962;-70
2021/12/13 03:17:23;;;;;;;5.66;4.39;;;;;;;1.23;60.21;101729.53;463880;114;922555;-70
2021/12/13 03:18:33;;;;;;;6.78;4.58;;;;;;;1.22;60.13;101728.67;462292;112;922720;-70
2021/12/13 03:19:39;;;;;;;5.98;4.12;;;;;;;1.19;60.22;101723.58;463321;112;922610;-69
2021/12/13 03:20:55;;;;;;;6.04;4.27;;;;;;;1.18;60.19;101719.17;458596;112;922637;-69
2021/12/13 03:22:19;;;;;;;4.99;3.82;;;;;;;1.17;60.23;101728.20;458606;112;923018;-70
2021/12/13 03:23:26;;;;;;;5.54;4.28;;;;;;;1.17;60.26;101727.35;459267;112;922653;-70
2021/12/13 03:24:38;;;;;;;5.58;4.19;;;;;;;1.16;60.24;101725.64;459275;112;923029;-69
2021/12/13 03:26:02;;;;;;;10.84;4.52;;;;;;;1.15;60.24;101727.50;459143;112;922621;-69
2021/12/13 03:27:20;;;;;;;7.13;4.22;;;;;;;1.14;60.15;101725.78;458979;112;922610;-70
2021/12/13 03:28:50;;;;;;;5.16;4.31;;;;;;;1.12;60.15;101730.42;435143;118;924025;-70
2021/12/13 03:30:03;;;;;;;6.47;4.36;;;;;;;1.09;60.16;101729.83;439745;112;922888;-70
2021/12/13 03:31:09;;;;;;;7.30;4.27;;;;;;;1.07;60.21;101731.78;459427;112;922750;-69
2021/12/13 03:32:15;;;;;;;6.41;4.47;;;;;;;1.05;60.17;101731.89;460817;112;922594;-70
2021/12/13 03:33:22;;;;;;;7.62;4.43;;;;;;;1.03;60.18;101728.50;458779;112;922621;-69
2021/12/13 03:34:32;;;;;;;6.12;4.49;;;;;;;1.02;60.23;101733.98;459197;112;922651;-69
2021/12/13 03:35:50;;;;;;;6.62;4.32;;;;;;;1.01;60.27;101732.27;458946;112;922773;-70
2021/12/13 03:37:09;;;;;;;6.13;4.07;;;;;;;1.00;60.33;101723.36;460062;112;922651;-69
2021/12/13 03:38:32;;;;;;;6.43;4.99;;;;;;;1.00;60.41;101733.25;460016;112;922678;-68
2021/12/13 03:39:45;;;;;;;12.29;5.29;;;;;;;1.00;60.40;101731.42;460471;112;922703;-69
2021/12/13 03:40:49;;;;;;;7.58;4.76;;;;;;;1.00;60.42;101725.19;458337;112;922704;-69
2021/12/13 03:41:54;;;;;;;5.28;4.17;;;;;;;0.98;60.32;101724.48;459961;112;922555;-70
2021/12/13 03:43:00;;;;;;;7.12;5.07;;;;;;;0.98;60.32;101716.42;459631;112;922625;-68
2021/12/13 03:44:07;;;;;;;6.07;4.75;;;;;;;0.95;60.29;101720.20;458894;112;922781;-69
2021/12/13 03:45:17;;;;;;;5.73;4.65;;;;;;;0.94;60.36;101720.34;459160;112;923253;-70
2021/12/13 03:46:24;;;;;;;5.94;4.41;;;;;;;0.95;60.45;101716.66;459170;112;922708;-70
2021/12/13 03:47:36;;;;;;;6.88;4.63;;;;;;;0.95;60.42;101713.97;459254;112;922902;-70
2021/12/13 03:48:42;;;;;;;8.21;4.54;;;;;;;0.94;60.43;101721.17;459741;112;922596;-69
2021/12/13 03:49:50;;;;;;;4.98;4.26;;;;;;;0.94;60.41;101713.12;459847;112;922709;-69
2021/12/13 03:50:57;;;;;;;6.59;4.63;;;;;;;0.94;60.41;101710.43;460632;112;922731;-70
2021/12/13 03:52:03;;;;;;;8.72;4.91;;;;;;;0.94;60.38;101713.12;460471;112;922694;-70
2021/12/13 03:53:10;;;;;;;8.04;4.77;;;;;;;0.93;60.50;101706.06;459987;112;922627;-69
2021/12/13 03:54:17;;;;;;;8.23;5.14;;;;;;;0.94;60.52;101704.23;460282;112;923227;-70
2021/12/13 03:55:23;;;;;;;8.49;5.38;;;;;;;0.95;60.47;101709.45;459916;112;922990;-70
2021/12/13 03:56:33;;;;;;;8.18;4.20;;;;;;;0.95;60.45;101709.45;457583;112;922717;-71
2021/12/13 03:57:43;;;;;;;10.22;5.10;;;;;;;0.95;60.43;101711.29;460566;112;922639;-70
2021/12/13 03:58:52;;;;;;;7.39;6.32;;;;;;;0.94;60.43;101701.55;457453;112;922957;-69
2021/12/13 03:59:59;;;;;;;8.27;4.91;;;;;;;0.94;60.46;101696.19;458665;112;922928;-69
2021/12/13 04:01:06;;;;;;;8.12;4.71;;;;;;;0.94;60.50;101698.87;459404;112;922635;-71
2021/12/13 04:02:14;;;;;;;6.48;5.07;;;;;;;0.92;60.42;101696.30;456324;112;922677;-70
2021/12/13 04:03:20;;;;;;;7.18;4.80;;;;;;;0.92;60.44;101701.67;458021;112;922681;-69
2021/12/13 04:04:30;;;;;;;9.28;5.74;;;;;;;0.91;60.49;101699.95;459120;112;923149;-70
2021/12/13 04:05:35;;;;;;;8.52;5.04;;;;;;;0.90;60.49;101698.24;446184;112;922861;-70
2021/12/13 04:06:45;;;;;;;6.67;4.87;;;;;;;0.90;60.49;101697.39;459817;112;922649;-69
2021/12/13 04:07:52;;;;;;;8.66;4.84;;;;;;;0.90;60.56;101692.02;458708;112;922791;-70
2021/12/13 04:08:59;;;;;;;6.74;5.46;;;;;;;0.89;60.59;101701.91;450403;115;922564;-69
2021/12/13 04:10:20;;;;;;;7.41;5.43;;;;;;;0.89;60.68;101707.27;459882;112;923564;-68
2021/12/13 04:11:26;;;;;;;6.17;4.56;;;;;;;0.89;60.66;101701.91;459723;112;923183;-70
2021/12/13 04:12:41;;;;;;;6.79;5.13;;;;;;;0.88;60.67;101700.22;460581;112;922833;-71
2021/12/13 04:13:41;;;;;;;9.42;5.07;;;;;;;0.87;60.71;101701.20;458283;112;922621;-70
2021/12/13 04:14:51;;;;;;;8.19;5.14;;;;;;;0.88;60.67;101702.91;460904;112;922573;-69
2021/12/13 04:16:15;;;;;;;7.87;4.93;;;;;;;0.89;60.67;101704.59;459875;112;922888;-70
2021/12/13 04:17:41;;;;;;;6.01;5.13;;;;;;;0.89;60.69;101701.05;458153;112;923243;-68
2021/12/13 04:19:06;;;;;;;6.97;5.63;;;;;;;0.88;60.73;101700.22;456116;112;930766;-70
2021/12/13 04:19:50;;;;;;;7.07;5.41;;;;;;;0.88;60.73;101704.73;455098;112;923076;-69
2021/12/13 04:21:02;;;;;;;6.00;5.12;;;;;;;0.87;60.77;101708.39;456476;112;923114;-70
2021/12/13 04:22:09;;;;;;;7.25;5.41;;;;;;;0.87;60.83;101722.67;459134;112;922707;-70
2021/12/13 04:23:19;;;;;;;6.46;5.29;;;;;;;0.86;60.83;101715.59;458604;112;922671;-69
2021/12/13 04:24:41;;;;;;;6.84;5.34;;;;;;;0.87;60.79;101713.77;459468;112;922704;-68
2021/12/13 04:25:47;;;;;;;9.27;4.60;;;;;;;0.86;60.86;101712.91;453535;114;922718;-68
2021/12/13 04:26:54;;;;;;;8.43;4.66;;;;;;;0.86;60.93;101712.91;454055;112;922607;-69
2021/12/13 04:28:10;;;;;;;8.38;5.44;;;;;;;0.87;60.93;101700.34;460516;112;922628;-69
2021/12/13 04:29:21;;;;;;;8.13;5.45;;;;;;;0.86;60.92;101704.00;458779;112;922606;-71
2021/12/13 04:30:28;;;;;;;6.16;5.23;;;;;;;0.87;61.00;101711.08;459351;112;922577;-69
2021/12/13 04:31:35;;;;;;;5.18;4.48;;;;;;;0.87;60.91;101711.94;459957;112;924221;-70
2021/12/13 04:32:42;;;;;;;7.57;4.88;;;;;;;0.87;60.94;101705.70;459683;112;922849;-70
2021/12/13 04:33:49;;;;;;;6.85;5.08;;;;;;;0.86;60.96;101702.16;459509;112;922745;-68
2021/12/13 04:34:55;;;;;;;6.41;5.41;;;;;;;0.86;60.99;101696.80;459221;112;923029;-69
2021/12/13 04:36:02;;;;;;;9.61;5.43;;;;;;;0.86;60.98;101698.63;459280;112;923087;-70
2021/12/13 04:37:07;;;;;;;5.27;4.77;;;;;;;0.86;61.00;101693.26;457436;112;922634;-70
2021/12/13 04:38:17;;;;;;;5.42;4.89;;;;;;;0.85;61.03;101695.09;459303;112;922538;-70
2021/12/13 04:39:28;;;;;;;10.98;5.76;;;;;;;0.86;61.08;101701.31;458727;112;922592;-69
2021/12/13 04:40:35;;;;;;;7.29;5.49;;;;;;;0.87;61.11;101692.28;459646;112;922683;-69
2021/12/13 04:41:48;;;;;;;7.91;5.16;;;;;;;0.88;61.09;101700.22;458521;112;922705;-69
2021/12/13 04:42:58;;;;;;;4.92;4.43;;;;;;;0.87;61.10;101698.51;458737;112;922777;-69
2021/12/13 04:44:08;;;;;;;8.34;4.90;;;;;;;0.91;61.17;101707.16;459681;112;922999;-68
2021/12/13 04:45:21;;;;;;;7.16;4.87;;;;;;;0.92;61.18;101706.19;459000;112;923048;-70
2021/12/13 04:46:27;;;;;;;5.99;5.22;;;;;;;0.94;61.15;101698.87;459778;112;922550;-69
2021/12/13 04:47:37;;;;;;;6.41;5.70;;;;;;;0.94;61.04;101705.06;459969;112;923042;-69
2021/12/13 04:48:44;;;;;;;7.39;5.71;;;;;;;0.95;61.08;101704.09;459830;112;922655;-69
2021/12/13 04:49:55;;;;;;;6.96;5.13;;;;;;;0.97;61.07;101704.83;459306;112;923056;-69
2021/12/13 04:51:07;;;;;;;7.08;5.06;;;;;;;0.97;61.05;101710.20;459157;112;923486;-69
2021/12/13 04:52:14;;;;;;;8.01;5.64;;;;;;;0.99;60.99;101708.25;459346;112;923070;-69
2021/12/13 04:53:27;;;;;;;6.21;5.59;;;;;;;1.00;61.01;101711.77;459591;112;923083;-68
2021/12/13 04:54:34;;;;;;;7.73;5.31;;;;;;;1.01;60.98;101719.70;458867;112;922641;-70
2021/12/13 04:55:42;;;;;;;7.46;5.33;;;;;;;1.02;60.91;101717.87;457851;112;923080;-69
2021/12/13 04:56:46;;;;;;;7.63;5.44;;;;;;;1.03;60.90;101731.19;458080;112;922672;-69
2021/12/13 04:57:52;;;;;;;7.13;5.24;;;;;;;1.03;60.91;101725.81;459113;112;922830;-69
2021/12/13 04:59:00;;;;;;;8.27;6.07;;;;;;;1.04;60.91;101730.21;458455;112;922719;-70
2021/12/13 05:00:08;;;;;;;8.29;5.93;;;;;;;1.06;61.00;101736.29;457376;112;922774;-70
2021/12/13 05:01:14;;;;;;;8.64;5.71;;;;;;;1.08;61.00;101737.03;449251;117;922807;-68
2021/12/13 05:02:18;;;;;;;8.14;5.94;;;;;;;1.10;60.88;101734.23;458682;112;922566;-69
2021/12/13 05:03:25;;;;;;;8.78;5.78;;;;;;;1.13;60.85;101732.13;459114;112;922617;-71
2021/12/13 05:04:29;;;;;;;7.18;5.42;;;;;;;1.15;60.88;101723.95;459768;112;922933;-68
2021/12/13 05:05:35;;;;;;;10.49;7.27;;;;;;;1.18;60.88;101729.06;459966;112;922602;-71
2021/12/13 05:06:40;;;;;;;8.72;6.02;;;;;;;1.22;60.79;101725.13;460642;112;923125;-70
2021/12/13 05:07:45;;;;;;;8.51;5.87;;;;;;;1.27;60.67;101730.16;459387;112;923362;-70
2021/12/13 05:08:53;;;;;;;10.52;6.21;;;;;;;1.28;60.57;101724.63;459178;112;922849;-73
2021/12/13 05:09:58;;;;;;;7.08;6.04;;;;;;;1.30;60.47;101724.52;459484;112;922659;-70
2021/12/13 05:11:05;;;;;;;7.44;6.49;;;;;;;1.31;60.40;101720.85;459894;112;922618;-68
2021/12/13 05:12:13;;;;;;;8.78;6.75;;;;;;;1.32;60.38;101714.50;460481;112;922562;-70
2021/12/13 05:13:20;;;;;;;9.48;6.89;;;;;;;1.32;60.32;101719.88;458052;112;922600;-69
2021/12/13 05:14:42;;;;;;;7.98;6.18;;;;;;;1.32;60.28;101719.88;457993;112;922626;-71
2021/12/13 05:15:58;;;;;;;7.23;5.35;;;;;;;1.32;60.21;101720.73;458834;112;922742;-69
2021/12/13 05:17:05;;;;;;;8.96;5.69;;;;;;;1.28;60.07;101718.41;457969;112;922604;-70
2021/12/13 05:18:12;;;;;;;7.83;6.01;;;;;;;1.24;60.25;101723.19;459526;112;923393;-69
2021/12/13 05:19:28;;;;;;;9.69;6.69;;;;;;;1.22;60.36;101717.94;458494;112;923083;-69
2021/12/13 05:20:35;;;;;;;12.70;6.96;;;;;;;1.23;60.39;101716.95;457949;112;922472;-70
2021/12/13 05:21:45;;;;;;;10.38;6.57;;;;;;;1.22;60.40;101715.25;460133;112;922728;-69
2021/12/13 05:22:51;;;;;;;10.51;6.89;;;;;;;1.22;60.38;101717.94;459863;112;922597;-70
2021/12/13 05:23:58;;;;;;;10.52;6.86;;;;;;;1.23;60.54;101721.48;460864;112;923029;-71
2021/12/13 05:25:03;;;;;;;8.46;6.76;;;;;;;1.27;60.48;101716.72;459880;112;922682;-69
2021/12/13 05:26:07;;;;;;;8.78;6.39;;;;;;;1.29;60.50;101723.66;458681;112;922647;-70
2021/12/13 05:27:14;;;;;;;8.42;6.11;;;;;;;1.32;60.48;101725.25;459879;112;922691;-72
2021/12/13 05:28:39;;;;;;;8.01;6.36;;;;;;;1.34;60.37;101718.75;457088;112;922612;-70
2021/12/13 05:29:49;;;;;;;7.01;5.95;;;;;;;1.35;60.34;101725.84;458198;112;922596;-70
2021/12/13 05:30:57;;;;;;;11.00;6.58;;;;;;;1.37;60.20;101733.78;458444;112;922675;-72
2021/12/13 05:32:10;;;;;;;10.40;5.54;;;;;;;1.37;60.18;101739.16;457855;112;930522;-69
2021/12/13 05:33:16;;;;;;;8.68;6.20;;;;;;;1.36;60.17;101732.06;457457;112;922589;-68